sensor_id;sensor_type;location;lat;lon;timestamp;P1;durP1;ratioP1;P2;durP2;ratioP2
35576;SDS011;21680;52.400;16.920;2023-06-14T00:00:09;7.00;;;5.80;;
35576;SDS011;21680;52.400;16.920;2023-06-14T00:02:39;8.50;;;7.10;;
35576;SDS011;21680;52.400;16.920;2023-06-14T00:05:05;9.20;;;6.60;;
35576;SDS011;21680;52.400;16.920;2023-06-14T00:07:34;10.40;;;6.10;;
35576;SDS011;21680;52.400;16.920;2023-06-14T00:10:02;8.50;;;6.60;;
35576;SDS011;21680;52.400;16.920;2023-06-14T00:12:28;12.20;;;6.70;;
35576;SDS011;21680;52.400;16.920;2023-06-14T00:14:53;11.00;;;5.90;;
35576;SDS011;21680;52.400;16.920;2023-06-14T00:17:18;7.80;;;6.70;;
35576;SDS011;21680;52.400;16.920;2023-06-14T00:19:44;8.40;;;5.90;;
35576;SDS011;21680;52.400;16.920;2023-06-14T00:22:09;8.90;;;5.70;;
35576;SDS011;21680;52.400;16.920;2023-06-14T00:24:35;7.40;;;5.60;;
35576;SDS011;21680;52.400;16.920;2023-06-14T00:27:00;7.70;;;6.10;;
35576;SDS011;21680;52.400;16.920;2023-06-14T00:29:26;9.30;;;5.70;;
35576;SDS011;21680;52.400;16.920;2023-06-14T00:31:51;9.10;;;6.10;;
35576;SDS011;21680;52.400;16.920;2023-06-14T00:34:16;8.50;;;5.90;;
35576;SDS011;21680;52.400;16.920;2023-06-14T00:36:41;6.80;;;5.50;;
35576;SDS011;21680;52.400;16.920;2023-06-14T00:39:06;7.00;;;5.60;;
35576;SDS011;21680;52.400;16.920;2023-06-14T00:41:32;9.20;;;5.70;;
35576;SDS011;21680;52.400;16.920;2023-06-14T00:43:57;6.50;;;4.50;;
35576;SDS011;21680;52.400;16.920;2023-06-14T00:46:22;8.40;;;5.80;;
35576;SDS011;21680;52.400;16.920;2023-06-14T00:48:47;6.70;;;4.90;;
35576;SDS011;21680;52.400;16.920;2023-06-14T00:51:13;6.60;;;4.80;;
35576;SDS011;21680;52.400;16.920;2023-06-14T00:53:39;9.20;;;5.70;;
35576;SDS011;21680;52.400;16.920;2023-06-14T00:56:06;9.70;;;5.20;;
35576;SDS011;21680;52.400;16.920;2023-06-14T00:58:32;7.50;;;4.90;;
35576;SDS011;21680;52.400;16.920;2023-06-14T01:00:57;8.90;;;4.60;;
35576;SDS011;21680;52.400;16.920;2023-06-14T01:03:23;8.30;;;5.40;;
35576;SDS011;21680;52.400;16.920;2023-06-14T01:05:51;9.10;;;5.00;;
35576;SDS011;21680;52.400;16.920;2023-06-14T01:08:42;9.00;;;4.10;;
35576;SDS011;21680;52.400;16.920;2023-06-14T01:11:18;7.30;;;4.40;;
35576;SDS011;21680;52.400;16.920;2023-06-14T01:13:56;6.30;;;4.30;;
35576;SDS011;21680;52.400;16.920;2023-06-14T01:16:24;8.80;;;4.70;;
35576;SDS011;21680;52.400;16.920;2023-06-14T01:18:51;4.40;;;3.70;;
35576;SDS011;21680;52.400;16.920;2023-06-14T01:21:24;6.40;;;4.70;;
35576;SDS011;21680;52.400;16.920;2023-06-14T01:23:51;6.00;;;4.20;;
35576;SDS011;21680;52.400;16.920;2023-06-14T01:26:21;8.60;;;4.90;;
35576;SDS011;21680;52.400;16.920;2023-06-14T01:28:48;6.10;;;4.40;;
35576;SDS011;21680;52.400;16.920;2023-06-14T01:31:16;7.40;;;4.00;;
35576;SDS011;21680;52.400;16.920;2023-06-14T01:33:44;9.90;;;4.20;;
35576;SDS011;21680;52.400;16.920;2023-06-14T01:36:11;7.30;;;3.70;;
35576;SDS011;21680;52.400;16.920;2023-06-14T01:38:37;3.80;;;3.20;;
35576;SDS011;21680;52.400;16.920;2023-06-14T01:41:02;7.20;;;3.90;;
35576;SDS011;21680;52.400;16.920;2023-06-14T01:43:29;5.30;;;3.70;;
35576;SDS011;21680;52.400;16.920;2023-06-14T01:45:56;10.80;;;4.00;;
35576;SDS011;21680;52.400;16.920;2023-06-14T01:48:22;5.00;;;3.90;;
35576;SDS011;21680;52.400;16.920;2023-06-14T01:50:49;4.20;;;3.60;;
35576;SDS011;21680;52.400;16.920;2023-06-14T01:53:15;8.50;;;4.90;;
35576;SDS011;21680;52.400;16.920;2023-06-14T01:55:40;5.70;;;3.80;;
35576;SDS011;21680;52.400;16.920;2023-06-14T01:58:08;8.60;;;4.30;;
35576;SDS011;21680;52.400;16.920;2023-06-14T02:00:34;7.30;;;4.10;;
35576;SDS011;21680;52.400;16.920;2023-06-14T02:02:59;6.80;;;4.20;;
35576;SDS011;21680;52.400;16.920;2023-06-14T02:05:25;4.40;;;3.70;;
35576;SDS011;21680;52.400;16.920;2023-06-14T02:07:51;9.90;;;3.80;;
35576;SDS011;21680;52.400;16.920;2023-06-14T02:10:18;6.00;;;4.40;;
35576;SDS011;21680;52.400;16.920;2023-06-14T02:12:44;8.20;;;4.40;;
35576;SDS011;21680;52.400;16.920;2023-06-14T02:15:10;8.30;;;5.00;;
35576;SDS011;21680;52.400;16.920;2023-06-14T02:17:42;6.40;;;4.40;;
35576;SDS011;21680;52.400;16.920;2023-06-14T02:20:08;7.20;;;4.80;;
35576;SDS011;21680;52.400;16.920;2023-06-14T02:22:34;6.00;;;4.10;;
35576;SDS011;21680;52.400;16.920;2023-06-14T02:25:00;8.20;;;4.40;;
35576;SDS011;21680;52.400;16.920;2023-06-14T02:27:25;5.80;;;4.40;;
35576;SDS011;21680;52.400;16.920;2023-06-14T02:29:50;7.60;;;4.40;;
35576;SDS011;21680;52.400;16.920;2023-06-14T02:32:15;6.50;;;4.30;;
35576;SDS011;21680;52.400;16.920;2023-06-14T02:34:41;6.30;;;3.90;;
35576;SDS011;21680;52.400;16.920;2023-06-14T02:37:07;5.70;;;4.50;;
35576;SDS011;21680;52.400;16.920;2023-06-14T02:39:33;9.30;;;4.40;;
35576;SDS011;21680;52.400;16.920;2023-06-14T02:41:59;5.20;;;4.10;;
35576;SDS011;21680;52.400;16.920;2023-06-14T02:44:24;5.50;;;3.90;;
35576;SDS011;21680;52.400;16.920;2023-06-14T02:46:53;5.50;;;4.30;;
35576;SDS011;21680;52.400;16.920;2023-06-14T02:49:19;6.80;;;4.10;;
35576;SDS011;21680;52.400;16.920;2023-06-14T02:51:44;7.60;;;4.80;;
35576;SDS011;21680;52.400;16.920;2023-06-14T02:54:10;6.30;;;4.30;;
35576;SDS011;21680;52.400;16.920;2023-06-14T02:56:36;5.80;;;4.40;;
35576;SDS011;21680;52.400;16.920;2023-06-14T02:59:01;8.70;;;4.30;;
35576;SDS011;21680;52.400;16.920;2023-06-14T03:01:27;8.80;;;4.90;;
35576;SDS011;21680;52.400;16.920;2023-06-14T03:03:58;7.10;;;4.70;;
35576;SDS011;21680;52.400;16.920;2023-06-14T03:06:24;8.10;;;4.60;;
35576;SDS011;21680;52.400;16.920;2023-06-14T03:08:50;7.90;;;4.70;;
35576;SDS011;21680;52.400;16.920;2023-06-14T03:11:16;6.30;;;4.30;;
35576;SDS011;21680;52.400;16.920;2023-06-14T03:13:45;10.50;;;5.10;;
35576;SDS011;21680;52.400;16.920;2023-06-14T03:16:12;5.90;;;4.60;;
35576;SDS011;21680;52.400;16.920;2023-06-14T03:18:37;6.90;;;4.30;;
35576;SDS011;21680;52.400;16.920;2023-06-14T03:21:03;7.60;;;4.80;;
35576;SDS011;21680;52.400;16.920;2023-06-14T03:23:28;6.50;;;4.20;;
35576;SDS011;21680;52.400;16.920;2023-06-14T03:25:53;7.30;;;4.10;;
35576;SDS011;21680;52.400;16.920;2023-06-14T03:28:19;9.20;;;4.90;;
35576;SDS011;21680;52.400;16.920;2023-06-14T03:30:45;7.80;;;4.90;;
35576;SDS011;21680;52.400;16.920;2023-06-14T03:33:10;6.40;;;4.50;;
35576;SDS011;21680;52.400;16.920;2023-06-14T03:35:36;7.60;;;4.40;;
35576;SDS011;21680;52.400;16.920;2023-06-14T03:38:01;12.70;;;4.70;;
35576;SDS011;21680;52.400;16.920;2023-06-14T03:40:27;5.60;;;4.10;;
35576;SDS011;21680;52.400;16.920;2023-06-14T03:42:55;8.70;;;4.40;;
35576;SDS011;21680;52.400;16.920;2023-06-14T03:45:21;6.70;;;4.60;;
35576;SDS011;21680;52.400;16.920;2023-06-14T03:47:47;7.80;;;4.50;;
35576;SDS011;21680;52.400;16.920;2023-06-14T03:50:12;7.90;;;4.80;;
35576;SDS011;21680;52.400;16.920;2023-06-14T03:52:37;7.00;;;4.60;;
35576;SDS011;21680;52.400;16.920;2023-06-14T03:55:03;5.80;;;4.10;;
35576;SDS011;21680;52.400;16.920;2023-06-14T03:57:29;9.10;;;4.90;;
35576;SDS011;21680;52.400;16.920;2023-06-14T03:59:55;6.40;;;4.40;;
35576;SDS011;21680;52.400;16.920;2023-06-14T04:02:20;6.10;;;4.80;;
35576;SDS011;21680;52.400;16.920;2023-06-14T04:04:46;5.20;;;4.40;;
35576;SDS011;21680;52.400;16.920;2023-06-14T04:07:11;6.60;;;4.80;;
35576;SDS011;21680;52.400;16.920;2023-06-14T04:09:37;6.80;;;4.30;;
35576;SDS011;21680;52.400;16.920;2023-06-14T04:12:04;7.70;;;4.50;;
35576;SDS011;21680;52.400;16.920;2023-06-14T04:14:30;5.70;;;4.60;;
35576;SDS011;21680;52.400;16.920;2023-06-14T04:16:57;11.70;;;4.00;;
35576;SDS011;21680;52.400;16.920;2023-06-14T04:19:24;7.90;;;4.80;;
35576;SDS011;21680;52.400;16.920;2023-06-14T04:21:49;5.00;;;3.60;;
35576;SDS011;21680;52.400;16.920;2023-06-14T04:24:15;9.10;;;4.40;;
35576;SDS011;21680;52.400;16.920;2023-06-14T04:26:41;10.20;;;4.20;;
35576;SDS011;21680;52.400;16.920;2023-06-14T04:29:14;8.20;;;4.60;;
35576;SDS011;21680;52.400;16.920;2023-06-14T04:31:41;11.20;;;5.20;;
35576;SDS011;21680;52.400;16.920;2023-06-14T04:34:07;8.80;;;5.20;;
35576;SDS011;21680;52.400;16.920;2023-06-14T04:36:33;8.40;;;4.60;;
35576;SDS011;21680;52.400;16.920;2023-06-14T04:39:06;8.10;;;4.80;;
35576;SDS011;21680;52.400;16.920;2023-06-14T04:41:32;8.20;;;4.70;;
35576;SDS011;21680;52.400;16.920;2023-06-14T04:43:57;12.10;;;5.80;;
35576;SDS011;21680;52.400;16.920;2023-06-14T04:46:26;10.40;;;6.20;;
35576;SDS011;21680;52.400;16.920;2023-06-14T04:48:53;7.60;;;5.00;;
35576;SDS011;21680;52.400;16.920;2023-06-14T04:51:19;6.40;;;4.70;;
35576;SDS011;21680;52.400;16.920;2023-06-14T04:53:46;10.00;;;5.10;;
35576;SDS011;21680;52.400;16.920;2023-06-14T04:56:11;8.10;;;4.60;;
35576;SDS011;21680;52.400;16.920;2023-06-14T04:58:36;9.40;;;5.60;;
35576;SDS011;21680;52.400;16.920;2023-06-14T05:01:03;9.00;;;4.70;;
35576;SDS011;21680;52.400;16.920;2023-06-14T05:03:29;9.10;;;5.30;;
35576;SDS011;21680;52.400;16.920;2023-06-14T05:05:55;8.20;;;5.10;;
35576;SDS011;21680;52.400;16.920;2023-06-14T05:08:21;9.30;;;4.70;;
35576;SDS011;21680;52.400;16.920;2023-06-14T05:10:50;7.80;;;4.50;;
35576;SDS011;21680;52.400;16.920;2023-06-14T05:13:16;10.60;;;5.20;;
35576;SDS011;21680;52.400;16.920;2023-06-14T05:15:42;11.10;;;4.60;;
35576;SDS011;21680;52.400;16.920;2023-06-14T05:18:07;6.80;;;4.80;;
35576;SDS011;21680;52.400;16.920;2023-06-14T05:20:34;8.40;;;4.80;;
35576;SDS011;21680;52.400;16.920;2023-06-14T05:23:02;9.90;;;4.90;;
35576;SDS011;21680;52.400;16.920;2023-06-14T05:25:27;10.20;;;5.40;;
35576;SDS011;21680;52.400;16.920;2023-06-14T05:27:53;8.70;;;5.10;;
35576;SDS011;21680;52.400;16.920;2023-06-14T05:30:18;7.70;;;5.00;;
35576;SDS011;21680;52.400;16.920;2023-06-14T05:32:43;10.40;;;5.30;;
35576;SDS011;21680;52.400;16.920;2023-06-14T05:35:09;9.50;;;5.60;;
35576;SDS011;21680;52.400;16.920;2023-06-14T05:37:35;8.70;;;5.20;;
35576;SDS011;21680;52.400;16.920;2023-06-14T05:40:02;16.20;;;5.10;;
35576;SDS011;21680;52.400;16.920;2023-06-14T05:42:30;12.70;;;5.10;;
35576;SDS011;21680;52.400;16.920;2023-06-14T05:44:55;9.20;;;5.30;;
35576;SDS011;21680;52.400;16.920;2023-06-14T05:47:20;10.50;;;5.30;;
35576;SDS011;21680;52.400;16.920;2023-06-14T05:49:46;9.30;;;5.20;;
35576;SDS011;21680;52.400;16.920;2023-06-14T05:52:11;17.70;;;5.60;;
35576;SDS011;21680;52.400;16.920;2023-06-14T05:54:38;10.70;;;5.50;;
35576;SDS011;21680;52.400;16.920;2023-06-14T05:57:03;14.90;;;5.40;;
35576;SDS011;21680;52.400;16.920;2023-06-14T05:59:30;11.80;;;5.10;;
35576;SDS011;21680;52.400;16.920;2023-06-14T06:01:55;13.50;;;4.60;;
35576;SDS011;21680;52.400;16.920;2023-06-14T06:04:20;8.10;;;5.00;;
35576;SDS011;21680;52.400;16.920;2023-06-14T06:06:46;10.00;;;5.00;;
35576;SDS011;21680;52.400;16.920;2023-06-14T06:09:12;10.30;;;5.80;;
35576;SDS011;21680;52.400;16.920;2023-06-14T06:11:39;6.40;;;4.90;;
35576;SDS011;21680;52.400;16.920;2023-06-14T06:14:05;8.60;;;4.80;;
35576;SDS011;21680;52.400;16.920;2023-06-14T06:16:30;9.00;;;4.90;;
35576;SDS011;21680;52.400;16.920;2023-06-14T06:18:56;9.10;;;4.80;;
35576;SDS011;21680;52.400;16.920;2023-06-14T06:21:21;15.10;;;5.20;;
35576;SDS011;21680;52.400;16.920;2023-06-14T06:23:46;11.50;;;5.70;;
35576;SDS011;21680;52.400;16.920;2023-06-14T06:26:12;9.80;;;5.20;;
35576;SDS011;21680;52.400;16.920;2023-06-14T06:28:37;10.70;;;5.70;;
35576;SDS011;21680;52.400;16.920;2023-06-14T06:31:02;10.80;;;5.50;;
35576;SDS011;21680;52.400;16.920;2023-06-14T06:33:28;12.20;;;5.40;;
35576;SDS011;21680;52.400;16.920;2023-06-14T06:35:53;8.40;;;4.90;;
35576;SDS011;21680;52.400;16.920;2023-06-14T06:38:18;11.40;;;5.40;;
35576;SDS011;21680;52.400;16.920;2023-06-14T06:40:44;8.50;;;4.80;;
35576;SDS011;21680;52.400;16.920;2023-06-14T06:43:09;10.90;;;5.30;;
35576;SDS011;21680;52.400;16.920;2023-06-14T06:45:38;13.10;;;5.30;;
35576;SDS011;21680;52.400;16.920;2023-06-14T06:48:04;9.20;;;5.00;;
35576;SDS011;21680;52.400;16.920;2023-06-14T06:50:29;10.40;;;5.10;;
35576;SDS011;21680;52.400;16.920;2023-06-14T06:52:55;14.40;;;6.80;;
35576;SDS011;21680;52.400;16.920;2023-06-14T06:55:20;10.30;;;6.40;;
35576;SDS011;21680;52.400;16.920;2023-06-14T06:57:46;10.30;;;5.10;;
35576;SDS011;21680;52.400;16.920;2023-06-14T07:00:11;10.50;;;4.50;;
35576;SDS011;21680;52.400;16.920;2023-06-14T07:02:37;13.00;;;5.10;;
35576;SDS011;21680;52.400;16.920;2023-06-14T07:05:03;6.80;;;4.20;;
35576;SDS011;21680;52.400;16.920;2023-06-14T07:07:29;16.00;;;4.30;;
35576;SDS011;21680;52.400;16.920;2023-06-14T07:09:54;8.10;;;4.60;;
35576;SDS011;21680;52.400;16.920;2023-06-14T07:12:22;6.20;;;4.40;;
35576;SDS011;21680;52.400;16.920;2023-06-14T07:14:48;10.50;;;4.70;;
35576;SDS011;21680;52.400;16.920;2023-06-14T07:17:13;13.70;;;4.50;;
35576;SDS011;21680;52.400;16.920;2023-06-14T07:19:38;10.70;;;4.90;;
35576;SDS011;21680;52.400;16.920;2023-06-14T07:22:03;10.90;;;5.20;;
35576;SDS011;21680;52.400;16.920;2023-06-14T07:24:29;7.50;;;5.20;;
35576;SDS011;21680;52.400;16.920;2023-06-14T07:26:54;7.80;;;4.70;;
35576;SDS011;21680;52.400;16.920;2023-06-14T07:29:20;6.90;;;4.60;;
35576;SDS011;21680;52.400;16.920;2023-06-14T07:31:46;8.90;;;4.30;;
35576;SDS011;21680;52.400;16.920;2023-06-14T07:34:11;11.30;;;5.10;;
35576;SDS011;21680;52.400;16.920;2023-06-14T07:36:37;8.50;;;4.40;;
35576;SDS011;21680;52.400;16.920;2023-06-14T07:39:03;6.40;;;4.20;;
35576;SDS011;21680;52.400;16.920;2023-06-14T07:41:29;9.20;;;5.20;;
35576;SDS011;21680;52.400;16.920;2023-06-14T07:43:54;8.50;;;4.40;;
35576;SDS011;21680;52.400;16.920;2023-06-14T07:46:20;10.60;;;4.70;;
35576;SDS011;21680;52.400;16.920;2023-06-14T07:48:45;12.80;;;4.40;;
35576;SDS011;21680;52.400;16.920;2023-06-14T07:51:10;8.00;;;5.10;;
35576;SDS011;21680;52.400;16.920;2023-06-14T07:53:36;8.60;;;4.00;;
35576;SDS011;21680;52.400;16.920;2023-06-14T07:56:01;8.80;;;5.10;;
35576;SDS011;21680;52.400;16.920;2023-06-14T07:58:27;9.10;;;4.80;;
35576;SDS011;21680;52.400;16.920;2023-06-14T08:00:52;7.30;;;4.90;;
35576;SDS011;21680;52.400;16.920;2023-06-14T08:03:18;10.80;;;4.50;;
35576;SDS011;21680;52.400;16.920;2023-06-14T08:05:44;9.30;;;5.60;;
35576;SDS011;21680;52.400;16.920;2023-06-14T08:08:09;8.10;;;4.50;;
35576;SDS011;21680;52.400;16.920;2023-06-14T08:10:35;6.60;;;4.30;;
35576;SDS011;21680;52.400;16.920;2023-06-14T08:13:00;7.50;;;4.50;;
35576;SDS011;21680;52.400;16.920;2023-06-14T08:15:25;9.10;;;3.90;;
35576;SDS011;21680;52.400;16.920;2023-06-14T08:17:51;7.20;;;3.90;;
35576;SDS011;21680;52.400;16.920;2023-06-14T08:20:16;8.80;;;5.00;;
35576;SDS011;21680;52.400;16.920;2023-06-14T08:22:42;10.40;;;4.70;;
35576;SDS011;21680;52.400;16.920;2023-06-14T08:25:08;6.60;;;4.40;;
35576;SDS011;21680;52.400;16.920;2023-06-14T08:27:34;10.80;;;5.30;;
35576;SDS011;21680;52.400;16.920;2023-06-14T08:30:00;7.10;;;4.50;;
35576;SDS011;21680;52.400;16.920;2023-06-14T08:32:25;11.50;;;4.60;;
35576;SDS011;21680;52.400;16.920;2023-06-14T08:34:50;6.00;;;4.60;;
35576;SDS011;21680;52.400;16.920;2023-06-14T08:37:16;5.70;;;4.10;;
35576;SDS011;21680;52.400;16.920;2023-06-14T08:39:41;7.90;;;4.70;;
35576;SDS011;21680;52.400;16.920;2023-06-14T08:42:06;6.90;;;4.20;;
35576;SDS011;21680;52.400;16.920;2023-06-14T08:44:34;11.20;;;4.60;;
35576;SDS011;21680;52.400;16.920;2023-06-14T08:46:59;14.30;;;4.60;;
35576;SDS011;21680;52.400;16.920;2023-06-14T08:49:25;11.60;;;4.50;;
35576;SDS011;21680;52.400;16.920;2023-06-14T08:51:58;10.90;;;4.50;;
35576;SDS011;21680;52.400;16.920;2023-06-14T08:54:27;7.10;;;4.30;;
35576;SDS011;21680;52.400;16.920;2023-06-14T08:56:55;6.20;;;4.00;;
35576;SDS011;21680;52.400;16.920;2023-06-14T08:59:23;12.60;;;4.70;;
35576;SDS011;21680;52.400;16.920;2023-06-14T09:01:51;16.90;;;5.60;;
35576;SDS011;21680;52.400;16.920;2023-06-14T09:04:17;20.30;;;5.80;;
35576;SDS011;21680;52.400;16.920;2023-06-14T09:06:44;12.90;;;4.80;;
35576;SDS011;21680;52.400;16.920;2023-06-14T09:09:10;6.90;;;3.70;;
35576;SDS011;21680;52.400;16.920;2023-06-14T09:11:36;8.40;;;4.70;;
35576;SDS011;21680;52.400;16.920;2023-06-14T09:14:01;7.60;;;3.80;;
35576;SDS011;21680;52.400;16.920;2023-06-14T09:16:27;7.50;;;3.70;;
35576;SDS011;21680;52.400;16.920;2023-06-14T09:18:53;11.20;;;3.20;;
35576;SDS011;21680;52.400;16.920;2023-06-14T09:21:19;6.00;;;3.30;;
35576;SDS011;21680;52.400;16.920;2023-06-14T09:23:46;8.80;;;3.10;;
35576;SDS011;21680;52.400;16.920;2023-06-14T09:26:18;7.90;;;4.30;;
35576;SDS011;21680;52.400;16.920;2023-06-14T09:28:48;9.60;;;3.60;;
35576;SDS011;21680;52.400;16.920;2023-06-14T09:31:18;7.50;;;3.70;;
35576;SDS011;21680;52.400;16.920;2023-06-14T09:33:45;6.10;;;3.60;;
35576;SDS011;21680;52.400;16.920;2023-06-14T09:36:26;10.40;;;3.90;;
35576;SDS011;21680;52.400;16.920;2023-06-14T09:38:55;4.10;;;2.90;;
35576;SDS011;21680;52.400;16.920;2023-06-14T09:41:35;4.60;;;3.50;;
35576;SDS011;21680;52.400;16.920;2023-06-14T09:44:02;8.10;;;3.40;;
35576;SDS011;21680;52.400;16.920;2023-06-14T09:46:29;5.80;;;3.50;;
35576;SDS011;21680;52.400;16.920;2023-06-14T09:48:58;13.40;;;4.10;;
35576;SDS011;21680;52.400;16.920;2023-06-14T09:51:24;8.00;;;3.50;;
35576;SDS011;21680;52.400;16.920;2023-06-14T09:53:51;12.70;;;4.10;;
35576;SDS011;21680;52.400;16.920;2023-06-14T09:56:41;7.90;;;3.60;;
35576;SDS011;21680;52.400;16.920;2023-06-14T09:59:06;8.70;;;3.50;;
35576;SDS011;21680;52.400;16.920;2023-06-14T10:01:34;10.80;;;3.90;;
35576;SDS011;21680;52.400;16.920;2023-06-14T10:04:06;11.00;;;3.80;;
35576;SDS011;21680;52.400;16.920;2023-06-14T10:06:32;7.30;;;3.80;;
35576;SDS011;21680;52.400;16.920;2023-06-14T10:09:01;4.60;;;3.30;;
35576;SDS011;21680;52.400;16.920;2023-06-14T10:11:30;7.10;;;3.90;;
35576;SDS011;21680;52.400;16.920;2023-06-14T10:13:56;7.50;;;3.60;;
35576;SDS011;21680;52.400;16.920;2023-06-14T10:21:55;7.70;;;4.00;;
35576;SDS011;21680;52.400;16.920;2023-06-14T10:24:28;13.70;;;4.80;;
35576;SDS011;21680;52.400;16.920;2023-06-14T10:26:57;10.90;;;3.70;;
35576;SDS011;21680;52.400;16.920;2023-06-14T10:29:25;17.10;;;4.00;;
35576;SDS011;21680;52.400;16.920;2023-06-14T10:31:55;10.50;;;4.10;;
35576;SDS011;21680;52.400;16.920;2023-06-14T10:34:23;13.10;;;3.90;;
35576;SDS011;21680;52.400;16.920;2023-06-14T10:37:04;7.80;;;3.00;;
35576;SDS011;21680;52.400;16.920;2023-06-14T10:39:31;12.20;;;3.50;;
35576;SDS011;21680;52.400;16.920;2023-06-14T10:42:01;6.40;;;3.70;;
35576;SDS011;21680;52.400;16.920;2023-06-14T10:46:55;6.70;;;3.70;;
35576;SDS011;21680;52.400;16.920;2023-06-14T10:49:39;7.50;;;3.50;;
35576;SDS011;21680;52.400;16.920;2023-06-14T10:52:10;6.30;;;3.10;;
35576;SDS011;21680;52.400;16.920;2023-06-14T10:57:31;9.10;;;5.40;;
35576;SDS011;21680;52.400;16.920;2023-06-14T10:59:58;15.50;;;3.90;;
35576;SDS011;21680;52.400;16.920;2023-06-14T11:02:30;8.00;;;3.20;;
35576;SDS011;21680;52.400;16.920;2023-06-14T11:05:12;6.20;;;3.20;;
35576;SDS011;21680;52.400;16.920;2023-06-14T11:07:45;7.50;;;3.10;;
35576;SDS011;21680;52.400;16.920;2023-06-14T11:10:26;7.50;;;3.10;;
35576;SDS011;21680;52.400;16.920;2023-06-14T11:13:06;5.40;;;3.40;;
35576;SDS011;21680;52.400;16.920;2023-06-14T11:15:33;5.50;;;3.30;;
35576;SDS011;21680;52.400;16.920;2023-06-14T11:18:02;4.10;;;3.00;;
35576;SDS011;21680;52.400;16.920;2023-06-14T11:20:30;7.70;;;3.30;;
35576;SDS011;21680;52.400;16.920;2023-06-14T11:22:57;7.90;;;3.60;;
35576;SDS011;21680;52.400;16.920;2023-06-14T11:25:24;5.90;;;3.50;;
35576;SDS011;21680;52.400;16.920;2023-06-14T11:27:49;9.10;;;4.00;;
35576;SDS011;21680;52.400;16.920;2023-06-14T11:30:15;10.40;;;3.70;;
35576;SDS011;21680;52.400;16.920;2023-06-14T11:32:41;5.30;;;3.40;;
35576;SDS011;21680;52.400;16.920;2023-06-14T11:35:06;6.70;;;3.30;;
35576;SDS011;21680;52.400;16.920;2023-06-14T11:37:32;5.50;;;3.00;;
35576;SDS011;21680;52.400;16.920;2023-06-14T11:40:02;13.20;;;4.10;;
35576;SDS011;21680;52.400;16.920;2023-06-14T11:42:33;11.00;;;3.60;;
35576;SDS011;21680;52.400;16.920;2023-06-14T11:44:58;8.40;;;3.10;;
35576;SDS011;21680;52.400;16.920;2023-06-14T11:47:24;9.00;;;3.90;;
35576;SDS011;21680;52.400;16.920;2023-06-14T11:49:50;8.40;;;4.30;;
35576;SDS011;21680;52.400;16.920;2023-06-14T11:52:16;8.10;;;3.00;;
35576;SDS011;21680;52.400;16.920;2023-06-14T11:54:41;9.00;;;3.10;;
35576;SDS011;21680;52.400;16.920;2023-06-14T11:57:07;6.70;;;3.30;;
35576;SDS011;21680;52.400;16.920;2023-06-14T11:59:41;15.30;;;3.70;;
35576;SDS011;21680;52.400;16.920;2023-06-14T12:02:09;4.40;;;3.20;;
35576;SDS011;21680;52.400;16.920;2023-06-14T12:04:35;7.80;;;3.10;;
35576;SDS011;21680;52.400;16.920;2023-06-14T12:07:10;8.60;;;3.80;;
35576;SDS011;21680;52.400;16.920;2023-06-14T12:10:22;5.20;;;2.80;;
35576;SDS011;21680;52.400;16.920;2023-06-14T12:12:37;6.10;;;3.70;;
35576;SDS011;21680;52.400;16.920;2023-06-14T12:15:04;11.90;;;3.30;;
35576;SDS011;21680;52.400;16.920;2023-06-14T12:17:33;8.30;;;3.50;;
35576;SDS011;21680;52.400;16.920;2023-06-14T12:20:04;8.70;;;3.30;;
35576;SDS011;21680;52.400;16.920;2023-06-14T12:22:33;6.60;;;3.20;;
35576;SDS011;21680;52.400;16.920;2023-06-14T12:24:59;10.20;;;3.30;;
35576;SDS011;21680;52.400;16.920;2023-06-14T12:27:25;5.30;;;3.50;;
35576;SDS011;21680;52.400;16.920;2023-06-14T12:30:00;7.80;;;3.30;;
35576;SDS011;21680;52.400;16.920;2023-06-14T12:32:27;9.00;;;3.20;;
35576;SDS011;21680;52.400;16.920;2023-06-14T12:34:53;4.20;;;3.10;;
35576;SDS011;21680;52.400;16.920;2023-06-14T12:37:18;5.10;;;3.60;;
35576;SDS011;21680;52.400;16.920;2023-06-14T12:39:43;13.00;;;3.30;;
35576;SDS011;21680;52.400;16.920;2023-06-14T12:42:09;8.60;;;3.20;;
35576;SDS011;21680;52.400;16.920;2023-06-14T12:44:34;5.90;;;3.40;;
35576;SDS011;21680;52.400;16.920;2023-06-14T12:47:05;8.50;;;4.00;;
35576;SDS011;21680;52.400;16.920;2023-06-14T12:49:31;5.70;;;3.00;;
35576;SDS011;21680;52.400;16.920;2023-06-14T12:51:56;4.10;;;2.90;;
35576;SDS011;21680;52.400;16.920;2023-06-14T12:54:22;7.90;;;3.40;;
35576;SDS011;21680;52.400;16.920;2023-06-14T12:56:50;5.10;;;2.90;;
35576;SDS011;21680;52.400;16.920;2023-06-14T12:59:16;3.50;;;2.80;;
35576;SDS011;21680;52.400;16.920;2023-06-14T13:01:42;11.00;;;2.80;;
35576;SDS011;21680;52.400;16.920;2023-06-14T13:04:07;5.10;;;2.90;;
35576;SDS011;21680;52.400;16.920;2023-06-14T13:06:32;5.20;;;3.20;;
35576;SDS011;21680;52.400;16.920;2023-06-14T13:08:58;6.50;;;3.00;;
35576;SDS011;21680;52.400;16.920;2023-06-14T13:11:24;6.00;;;2.70;;
35576;SDS011;21680;52.400;16.920;2023-06-14T13:13:49;12.00;;;3.70;;
35576;SDS011;21680;52.400;16.920;2023-06-14T13:16:14;11.60;;;3.10;;
35576;SDS011;21680;52.400;16.920;2023-06-14T13:18:40;8.30;;;3.20;;
35576;SDS011;21680;52.400;16.920;2023-06-14T13:21:05;5.50;;;2.80;;
35576;SDS011;21680;52.400;16.920;2023-06-14T13:23:38;4.50;;;2.60;;
35576;SDS011;21680;52.400;16.920;2023-06-14T13:26:03;7.10;;;3.50;;
35576;SDS011;21680;52.400;16.920;2023-06-14T13:28:28;7.70;;;3.70;;
35576;SDS011;21680;52.400;16.920;2023-06-14T13:30:54;7.50;;;2.80;;
35576;SDS011;21680;52.400;16.920;2023-06-14T13:33:21;7.30;;;3.00;;
35576;SDS011;21680;52.400;16.920;2023-06-14T13:35:46;8.80;;;3.20;;
35576;SDS011;21680;52.400;16.920;2023-06-14T13:38:11;7.00;;;3.20;;
35576;SDS011;21680;52.400;16.920;2023-06-14T13:40:36;6.70;;;4.10;;
35576;SDS011;21680;52.400;16.920;2023-06-14T13:43:02;5.40;;;2.70;;
35576;SDS011;21680;52.400;16.920;2023-06-14T13:45:27;8.40;;;3.00;;
35576;SDS011;21680;52.400;16.920;2023-06-14T13:47:52;13.80;;;3.20;;
35576;SDS011;21680;52.400;16.920;2023-06-14T13:50:18;6.90;;;2.60;;
35576;SDS011;21680;52.400;16.920;2023-06-14T13:52:44;5.90;;;3.20;;
35576;SDS011;21680;52.400;16.920;2023-06-14T13:55:09;3.30;;;2.50;;
35576;SDS011;21680;52.400;16.920;2023-06-14T13:57:34;6.30;;;2.90;;
35576;SDS011;21680;52.400;16.920;2023-06-14T14:00:00;8.10;;;3.20;;
35576;SDS011;21680;52.400;16.920;2023-06-14T14:02:28;8.00;;;3.60;;
35576;SDS011;21680;52.400;16.920;2023-06-14T14:04:54;8.00;;;3.40;;
35576;SDS011;21680;52.400;16.920;2023-06-14T14:07:20;5.10;;;2.80;;
35576;SDS011;21680;52.400;16.920;2023-06-14T14:09:47;7.30;;;2.80;;
35576;SDS011;21680;52.400;16.920;2023-06-14T14:12:12;6.30;;;2.60;;
35576;SDS011;21680;52.400;16.920;2023-06-14T14:14:39;6.90;;;2.40;;
35576;SDS011;21680;52.400;16.920;2023-06-14T14:17:05;10.30;;;3.20;;
35576;SDS011;21680;52.400;16.920;2023-06-14T14:19:31;4.20;;;2.60;;
35576;SDS011;21680;52.400;16.920;2023-06-14T14:21:59;6.00;;;2.70;;
35576;SDS011;21680;52.400;16.920;2023-06-14T14:24:26;8.90;;;3.60;;
35576;SDS011;21680;52.400;16.920;2023-06-14T14:26:51;6.90;;;3.10;;
35576;SDS011;21680;52.400;16.920;2023-06-14T14:29:18;7.40;;;3.10;;
35576;SDS011;21680;52.400;16.920;2023-06-14T14:31:46;10.20;;;2.70;;
35576;SDS011;21680;52.400;16.920;2023-06-14T14:34:12;5.80;;;3.00;;
35576;SDS011;21680;52.400;16.920;2023-06-14T14:36:37;6.50;;;2.60;;
35576;SDS011;21680;52.400;16.920;2023-06-14T14:39:06;8.30;;;2.10;;